Date,TemperatureHighF,TemperatureAvgF,TemperatureLowF,DewpointHighF,DewpointAvgF,DewpointLowF,HumidityHigh,HumidityAvg,HumidityLow,PressureMaxIn,PressureMinIn,WindSpeedMaxMPH,WindSpeedAvgMPH,GustSpeedMaxMPH,PrecipitationSumIn
2013-7-1,74.8,70.0,67.0,72.0,68.8,67.0,98,96,90,30.10,29.94,11,4,19,0.08
2013-7-2,76.3,71.4,68.2,73.0,70.1,67.0,99,95,88,30.19,30.09,10,4,17,0.39
2013-7-3,75.4,72.0,69.0,73.0,70.8,69.0,99,96,92,30.21,30.16,12,4,18,0.00
2013-7-4,78.4,73.1,70.2,75.0,71.6,70.0,99,95,86,30.21,30.11,10,3,15,0.00
2013-7-5,80.5,75.0,70.5,75.0,72.2,69.0,98,91,82,30.15,30.05,11,3,16,0.00
2013-7-6,83.5,77.0,70.6,77.0,73.2,70.0,97,88,78,30.07,29.95,9,3,13,0.00
2013-7-7,85.8,77.6,71.4,77.0,73.5,70.0,97,88,71,29.99,29.89,7,2,13,0.00
2013-7-8,80.3,75.0,71.3,74.0,71.9,70.0,98,90,80,30.01,29.90,11,3,17,0.00
2013-7-9,74.9,72.9,70.3,72.0,71.3,69.0,98,95,90,30.05,29.98,9,2,9,0.00
2013-7-10,80.5,75.2,72.0,76.0,73.5,71.0,99,94,85,30.03,29.80,16,3,16,0.00
2013-7-11,75.3,72.9,71.4,74.0,72.1,70.0,99,97,92,29.86,29.79,8,2,16,0.33
2013-7-12,72.9,70.9,67.5,72.0,70.0,67.0,99,97,93,30.12,29.86,15,8,18,0.05
2013-7-13,76.9,70.3,67.4,75.0,69.5,67.0,99,98,91,30.27,30.12,13,4,13,0.01
2013-7-14,81.4,75.5,69.6,76.0,73.6,69.0,99,93,84,30.27,30.16,9,2,14,0.08
2013-7-15,85.1,78.9,72.6,78.0,74.7,72.0,98,87,73,30.16,30.07,8,2,11,0.08
2013-7-16,83.4,78.2,72.2,74.0,71.8,68.0,97,81,69,30.12,30.04,9,3,13,0.00
2013-7-17,82.1,76.4,71.4,75.0,71.1,66.0,93,84,69,30.15,30.02,8,3,11,0.00
2013-7-18,86.3,78.9,73.3,77.0,74.2,72.0,97,86,70,30.02,29.94,8,3,17,0.00
2013-7-19,83.7,77.0,73.8,79.0,72.5,-99.9,98,90,84,29.93,29.76,13,-18,21,0.00
2013-7-20,81.4,77.6,74.6,77.0,75.2,73.0,97,92,85,29.77,29.67,14,3,18,0.00
2013-7-21,80.0,73.5,68.4,74.0,70.1,67.0,96,89,71,29.95,29.76,14,2,21,0.19
2013-7-22,74.8,71.7,68.9,72.0,70.0,68.0,99,94,90,29.96,29.84,9,4,10,0.00
2013-7-23,81.4,75.6,70.4,78.0,74.3,70.0,99,95,89,29.84,29.54,12,4,17,0.00
2013-7-24,84.9,75.6,71.6,76.0,67.6,-99.9,100,83,66,29.83,29.54,14,-29,14,0.00
2013-7-25,75.9,35.5,66.2,69.0,-14.9,-99.9,93,45,75,29.98,29.85,19,-476,23,0.00
2013-7-26,69.3,31.5,67.4,69.0,-22.8,-99.9,97,44,91,29.99,29.81,25,-532,29,0.02
2013-7-27,76.8,52.7,69.8,72.0,22.2,-99.9,96,64,83,30.05,29.97,8,-280,15,0.02
2013-7-28,80.4,58.2,69.7,76.0,35.0,-99.9,98,73,79,30.00,29.89,7,-212,12,0.01
2013-7-29,79.5,61.1,68.9,76.0,41.5,-99.9,98,76,86,30.01,29.95,9,-174,13,0.01
2013-7-30,79.6,58.8,66.4,70.0,31.3,-99.9,98,62,59,30.06,29.98,11,-193,15,0.00
2013-7-31,77.9,58.4,65.4,67.0,33.3,-99.9,95,63,58,30.09,30.03,10,-188,12,0.00